Upper Fairmount, Maryland
Current Conditions -  °F | °C
As of 12:54 PM on Friday 24 Oct 2014 (Local Time) from KWAL Reporting Station
Clear Clear  
Wind Chill: 65°   Ceiling: Unl
Heat Index: 65°   Visibility: 10mi
Dew Point: 48°   Wind: 16mph
Humidity: 54%   Direction: 340°NNW
Pressure: 29.89"   Gusts: 23mph
Location:  38.1°N, 75.79°W
Report Text: KWAL 241654Z 34014G20KT 10SM CLR 18/09 A2989 RMK AO2 SLP120 T01830089
Loading
Personal Weather Stations






























Interactive Weather Map
Tropical Storm Tracking
New forecast layout! Learn more

10-Day Weather Forecast

Advertisements
Track Severe Weather on mobile